Time;durP1;ratioP1;P1;durP2;ratioP2;P2;SDS_P1;SDS_P2;PMS_P1;PMS_P2;Temp;Humidity;BMP_temperature;BMP_pressure;BME280_temperature;BME280_humidity;BME280_pressure;Samples;Min_cycle;Max_cycle;Signal;HPM_P1;HPM_P2
2021/12/06 00:01:39;;;;;;;1.33;0.50;;;;;;;;;;5031137;28;20048;-64
2021/12/06 00:04:12;;;;;;;0.68;0.40;;;;;;;;;;5030937;28;20512;-63
2021/12/06 00:06:41;;;;;;;2.05;0.40;;;;;;;;;;5031629;28;20028;-64
2021/12/06 00:09:24;;;;;;;0.65;0.40;;;;;;;;;;5031296;28;20032;-63
2021/12/06 00:11:57;;;;;;;0.98;0.40;;;;;;;;;;5031438;28;20018;-64
2021/12/06 00:14:28;;;;;;;0.60;0.40;;;;;;;;;;5030761;28;20034;-63
2021/12/06 00:16:55;;;;;;;1.20;0.38;;;;;;;;;;5031096;28;20103;-64
2021/12/06 00:19:22;;;;;;;1.10;0.68;;;;;;;;;;5031308;28;20030;-64
2021/12/06 00:21:51;;;;;;;0.55;0.38;;;;;;;;;;5030461;28;20644;-63
2021/12/06 00:24:18;;;;;;;0.40;0.30;;;;;;;;;;5030946;28;20037;-63
2021/12/06 00:26:45;;;;;;;0.30;0.30;;;;;;;;;;5031150;28;20045;-63
2021/12/06 00:29:12;;;;;;;0.80;0.30;;;;;;;;;;5030900;28;20024;-63
2021/12/06 00:31:42;;;;;;;0.40;0.30;;;;;;;;;;5030896;28;20244;-64
2021/12/06 00:34:14;;;;;;;0.77;0.43;;;;;;;;;;5030511;28;20064;-64
2021/12/06 00:36:50;;;;;;;0.60;0.30;;;;;;;;;;5031291;28;20415;-63
2021/12/06 00:39:17;;;;;;;0.68;0.52;;;;;;;;;;5027934;28;20036;-65
2021/12/06 00:41:44;;;;;;;3.47;0.70;;;;;;;;;;5027421;28;20033;-59
2021/12/06 00:44:14;;;;;;;4.93;0.75;;;;;;;;;;5027595;28;20444;-61
2021/12/06 00:46:41;;;;;;;8.02;0.90;;;;;;;;;;5024663;28;20033;-62
2021/12/06 00:49:13;;;;;;;3.63;0.70;;;;;;;;;;5016710;28;20040;-62
2021/12/06 00:51:41;;;;;;;3.63;0.75;;;;;;;;;;5027768;28;20473;-60
2021/12/06 00:54:15;;;;;;;2.75;1.08;;;;;;;;;;5015559;28;20496;-64
2021/12/06 00:56:47;;;;;;;0.88;0.55;;;;;;;;;;5016887;28;20062;-61
2021/12/06 00:59:19;;;;;;;6.38;0.82;;;;;;;;;;5031423;28;20030;-61
2021/12/06 01:01:51;;;;;;;1.90;0.55;;;;;;;;;;5012455;28;20034;-60
2021/12/06 01:04:19;;;;;;;5.17;0.60;;;;;;;;;;5010305;28;20052;-61
2021/12/06 01:06:46;;;;;;;6.53;0.75;;;;;;;;;;5008211;28;20441;-60
2021/12/06 01:09:13;;;;;;;7.57;0.88;;;;;;;;;;5008220;28;20112;-59
2021/12/06 01:11:40;;;;;;;7.22;1.10;;;;;;;;;;5008205;28;20030;-60
2021/12/06 01:14:07;;;;;;;3.90;0.80;;;;;;;;;;5006380;28;20026;-61
2021/12/06 01:16:34;;;;;;;2.50;0.82;;;;;;;;;;5022347;28;20393;-61
2021/12/06 01:19:01;;;;;;;3.83;1.00;;;;;;;;;;5010657;28;20027;-62
2021/12/06 01:21:51;;;;;;;3.25;0.82;;;;;;;;;;5017909;28;20108;-62
2021/12/06 01:24:24;;;;;;;3.53;0.93;;;;;;;;;;5017381;28;20049;-61
2021/12/06 01:40:55;;;;;;;7.47;1.05;;;;;;;;;;5014143;28;20039;-61
2021/12/06 01:43:22;;;;;;;4.80;1.20;;;;;;;;;;5016950;28;20030;-61
2021/12/06 01:45:49;;;;;;;4.60;0.98;;;;;;;;;;5014736;28;20084;-61
2021/12/06 01:48:16;;;;;;;7.60;1.17;;;;;;;;;;5016213;28;20075;-60
2021/12/06 01:50:43;;;;;;;7.88;1.70;;;;;;;;;;5017437;28;20018;-61
2021/12/06 01:53:11;;;;;;;6.90;1.40;;;;;;;;;;5022238;28;20021;-60
2021/12/06 01:55:40;;;;;;;6.28;1.48;;;;;;;;;;5018447;28;20024;-63
2021/12/06 01:58:08;;;;;;;4.15;1.20;;;;;;;;;;5025404;28;20034;-62
2021/12/06 02:00:51;;;;;;;4.45;0.90;;;;;;;;;;5024087;28;20473;-63
2021/12/06 02:03:19;;;;;;;5.50;1.15;;;;;;;;;;5024550;28;20088;-63
2021/12/06 02:05:48;;;;;;;6.47;1.23;;;;;;;;;;5013035;28;20064;-63
2021/12/06 02:08:16;;;;;;;2.40;1.00;;;;;;;;;;5024773;28;20029;-63
2021/12/06 02:10:43;;;;;;;4.97;1.10;;;;;;;;;;5015653;28;20029;-62
2021/12/06 02:13:12;;;;;;;5.68;1.33;;;;;;;;;;5017164;28;20437;-63
2021/12/06 02:15:48;;;;;;;3.40;1.10;;;;;;;;;;5022501;28;20021;-64
2021/12/06 02:18:38;;;;;;;4.20;1.40;;;;;;;;;;5021497;28;20037;-62
2021/12/06 02:21:25;;;;;;;5.05;1.30;;;;;;;;;;5023063;28;20057;-63
2021/12/06 02:23:55;;;;;;;6.05;1.20;;;;;;;;;;5021550;28;20050;-62
2021/12/06 02:26:25;;;;;;;6.32;1.77;;;;;;;;;;5017414;28;20045;-64
2021/12/06 02:28:54;;;;;;;15.60;2.03;;;;;;;;;;5022133;28;20065;-64
2021/12/06 02:31:23;;;;;;;6.22;1.40;;;;;;;;;;5012783;28;20477;-62
2021/12/06 02:33:50;;;;;;;9.30;1.92;;;;;;;;;;5012268;28;20022;-63
2021/12/06 02:36:18;;;;;;;4.22;1.20;;;;;;;;;;5013820;28;20022;-63
2021/12/06 02:38:46;;;;;;;8.60;1.52;;;;;;;;;;5024709;28;20365;-63
2021/12/06 02:41:13;;;;;;;10.45;1.30;;;;;;;;;;5031362;28;20022;-61
2021/12/06 02:43:41;;;;;;;8.00;1.60;;;;;;;;;;5025895;28;20069;-62
2021/12/06 02:46:09;;;;;;;5.85;1.70;;;;;;;;;;5023463;28;20029;-61
2021/12/06 02:48:36;;;;;;;4.80;1.42;;;;;;;;;;5012203;28;20026;-61
2021/12/06 02:51:05;;;;;;;8.45;2.08;;;;;;;;;;5011322;28;20030;-63
2021/12/06 02:53:33;;;;;;;6.72;1.55;;;;;;;;;;5012117;28;20160;-62
2021/12/06 02:56:04;;;;;;;10.85;1.65;;;;;;;;;;5012645;28;20030;-61
2021/12/06 03:01:12;;;;;;;5.35;1.40;;;;;;;;;;5030572;28;20405;-60
2021/12/06 03:03:40;;;;;;;5.25;1.70;;;;;;;;;;5031193;28;20056;-61
2021/12/06 03:06:09;;;;;;;8.50;1.90;;;;;;;;;;5031899;28;20139;-63
2021/12/06 03:08:41;;;;;;;6.53;1.23;;;;;;;;;;5032359;28;20029;-63
2021/12/06 03:11:10;;;;;;;5.97;1.50;;;;;;;;;;5032290;28;20507;-63
2021/12/06 03:13:37;;;;;;;6.13;1.75;;;;;;;;;;5032257;28;20578;-62
2021/12/06 03:16:08;;;;;;;6.50;1.63;;;;;;;;;;5032538;28;20045;-63
2021/12/06 03:18:35;;;;;;;5.35;1.70;;;;;;;;;;5031917;28;20034;-62
2021/12/06 03:21:02;;;;;;;8.07;1.67;;;;;;;;;;5032336;28;20036;-63
2021/12/06 03:23:29;;;;;;;5.97;1.60;;;;;;;;;;5032128;28;20049;-63
2021/12/06 03:25:56;;;;;;;6.40;1.98;;;;;;;;;;5031614;28;20068;-63
2021/12/06 03:28:23;;;;;;;5.57;1.45;;;;;;;;;;5032362;28;20037;-63
2021/12/06 03:30:50;;;;;;;5.72;1.85;;;;;;;;;;5032367;28;20029;-62
2021/12/06 03:33:17;;;;;;;4.97;1.58;;;;;;;;;;5030657;28;20524;-62
2021/12/06 03:35:44;;;;;;;6.40;1.75;;;;;;;;;;5031698;28;20053;-62
2021/12/06 03:38:11;;;;;;;5.15;1.80;;;;;;;;;;5031703;28;20032;-62
2021/12/06 03:40:38;;;;;;;5.72;2.05;;;;;;;;;;5031783;28;20040;-62
2021/12/06 03:43:05;;;;;;;5.30;1.48;;;;;;;;;;5030977;28;20037;-63
2021/12/06 03:45:35;;;;;;;4.30;1.70;;;;;;;;;;5031983;28;20481;-63
2021/12/06 03:48:02;;;;;;;7.25;1.70;;;;;;;;;;5031781;28;20718;-62
2021/12/06 03:50:29;;;;;;;5.20;1.65;;;;;;;;;;5031716;28;20127;-63
2021/12/06 03:52:56;;;;;;;5.50;1.50;;;;;;;;;;5031758;28;20029;-63
2021/12/06 03:55:23;;;;;;;5.68;2.17;;;;;;;;;;5031440;28;20025;-62
2021/12/06 03:57:50;;;;;;;4.43;1.65;;;;;;;;;;5031630;28;20032;-61
2021/12/06 04:00:17;;;;;;;5.50;1.50;;;;;;;;;;5031620;28;20428;-62
2021/12/06 04:02:44;;;;;;;5.68;1.65;;;;;;;;;;5029646;28;20037;-61
2021/12/06 04:05:11;;;;;;;5.00;1.55;;;;;;;;;;5031196;28;20021;-63
2021/12/06 04:07:38;;;;;;;8.60;2.22;;;;;;;;;;5031035;28;20066;-62
2021/12/06 04:10:07;;;;;;;3.10;1.42;;;;;;;;;;5031167;28;20362;-62
2021/12/06 04:12:35;;;;;;;6.13;1.65;;;;;;;;;;5030886;28;20025;-61
2021/12/06 04:15:03;;;;;;;4.05;1.50;;;;;;;;;;5031015;28;20503;-62
2021/12/06 04:17:30;;;;;;;6.10;1.83;;;;;;;;;;5029519;28;20120;-61
2021/12/06 04:19:57;;;;;;;5.07;1.58;;;;;;;;;;5030861;28;20121;-62
2021/12/06 04:22:24;;;;;;;5.40;1.85;;;;;;;;;;5030960;28;20029;-62
2021/12/06 04:24:51;;;;;;;2.78;1.40;;;;;;;;;;5030880;28;20111;-62
2021/12/06 04:27:21;;;;;;;2.75;1.60;;;;;;;;;;5030897;28;20084;-61
2021/12/06 04:29:49;;;;;;;4.78;1.92;;;;;;;;;;5030811;28;20452;-61
2021/12/06 04:32:17;;;;;;;2.50;1.45;;;;;;;;;;5031328;28;20099;-63
2021/12/06 04:34:44;;;;;;;3.30;1.50;;;;;;;;;;5030424;28;20022;-62
2021/12/06 04:37:11;;;;;;;3.60;1.60;;;;;;;;;;5031054;28;20060;-62
2021/12/06 04:39:38;;;;;;;3.40;1.95;;;;;;;;;;5031089;28;20595;-63
2021/12/06 04:42:06;;;;;;;3.40;1.50;;;;;;;;;;5030779;28;20125;-62
2021/12/06 04:44:33;;;;;;;4.43;1.83;;;;;;;;;;5030944;28;20425;-62
2021/12/06 04:47:00;;;;;;;3.60;1.52;;;;;;;;;;5030573;28;20032;-62
2021/12/06 04:49:29;;;;;;;4.35;1.70;;;;;;;;;;5030699;28;20055;-62
2021/12/06 04:51:58;;;;;;;4.75;1.50;;;;;;;;;;5030512;28;20044;-62
2021/12/06 04:54:27;;;;;;;4.22;1.63;;;;;;;;;;5030677;28;20033;-63
2021/12/06 04:57:07;;;;;;;4.97;1.80;;;;;;;;;;5030501;28;20017;-62
2021/12/06 04:59:40;;;;;;;3.17;1.50;;;;;;;;;;5030172;28;20393;-62
2021/12/06 05:02:11;;;;;;;3.88;1.60;;;;;;;;;;5030189;28;20022;-61
2021/12/06 05:04:40;;;;;;;3.42;1.30;;;;;;;;;;5031001;28;20434;-62
2021/12/06 05:07:12;;;;;;;5.82;1.60;;;;;;;;;;5030815;28;20022;-62
2021/12/06 05:09:41;;;;;;;2.20;1.42;;;;;;;;;;5030316;28;20033;-63
2021/12/06 05:12:09;;;;;;;5.60;1.85;;;;;;;;;;5030385;28;20381;-62
2021/12/06 05:14:36;;;;;;;4.35;1.60;;;;;;;;;;5031306;28;20025;-62
2021/12/06 05:17:04;;;;;;;3.08;1.33;;;;;;;;;;5034634;28;20082;-62
2021/12/06 05:19:31;;;;;;;5.30;1.63;;;;;;;;;;5034344;28;20026;-62
2021/12/06 05:21:58;;;;;;;3.45;1.70;;;;;;;;;;5034528;28;20028;-62
2021/12/06 05:24:25;;;;;;;2.97;1.58;;;;;;;;;;5034205;28;20037;-61
2021/12/06 05:26:53;;;;;;;2.80;1.60;;;;;;;;;;5034524;28;20041;-61
2021/12/06 05:29:24;;;;;;;3.72;1.65;;;;;;;;;;5033980;28;20098;-62
2021/12/06 05:31:55;;;;;;;4.55;1.60;;;;;;;;;;5034108;28;20033;-61
2021/12/06 05:34:29;;;;;;;5.53;1.60;;;;;;;;;;5034084;28;20029;-62
2021/12/06 05:36:56;;;;;;;4.43;1.88;;;;;;;;;;5034568;28;20029;-61
2021/12/06 05:39:23;;;;;;;3.00;1.42;;;;;;;;;;5034045;28;20018;-63
2021/12/06 05:41:50;;;;;;;1.67;1.17;;;;;;;;;;5032609;28;20112;-62
2021/12/06 05:44:17;;;;;;;4.05;1.55;;;;;;;;;;5033992;28;20040;-63
2021/12/06 05:46:44;;;;;;;2.85;1.55;;;;;;;;;;5034198;28;20033;-62
2021/12/06 05:49:11;;;;;;;2.50;1.10;;;;;;;;;;5033553;28;20524;-63
2021/12/06 05:51:38;;;;;;;3.75;1.40;;;;;;;;;;5032454;28;20117;-63
2021/12/06 05:54:05;;;;;;;3.88;1.40;;;;;;;;;;5033781;28;20032;-63
2021/12/06 05:56:32;;;;;;;2.80;1.20;;;;;;;;;;5033633;28;20108;-62
2021/12/06 05:58:59;;;;;;;2.97;1.50;;;;;;;;;;5033762;28;20033;-63
2021/12/06 06:01:30;;;;;;;2.65;1.30;;;;;;;;;;5033202;28;20040;-63
2021/12/06 06:04:01;;;;;;;2.17;1.20;;;;;;;;;;5033117;28;20045;-63
2021/12/06 06:06:31;;;;;;;3.58;1.48;;;;;;;;;;5033576;28;20025;-63
2021/12/06 06:08:59;;;;;;;2.22;1.50;;;;;;;;;;5033332;28;20052;-63
2021/12/06 06:11:26;;;;;;;2.60;1.33;;;;;;;;;;5033547;28;20033;-62
2021/12/06 06:13:53;;;;;;;3.15;1.73;;;;;;;;;;5033463;28;20061;-63
2021/12/06 06:16:22;;;;;;;2.13;1.13;;;;;;;;;;5033559;28;20109;-62
2021/12/06 06:18:50;;;;;;;2.28;1.40;;;;;;;;;;5033250;28;20025;-62
2021/12/06 06:21:19;;;;;;;2.47;1.30;;;;;;;;;;5033258;28;20087;-62
2021/12/06 06:23:46;;;;;;;2.63;1.35;;;;;;;;;;5033353;28;20037;-61
2021/12/06 06:26:13;;;;;;;2.65;1.38;;;;;;;;;;5033142;28;20037;-63
2021/12/06 06:28:40;;;;;;;2.03;1.13;;;;;;;;;;5033558;28;20036;-63
2021/12/06 06:31:07;;;;;;;3.10;1.38;;;;;;;;;;5032907;28;20033;-61
2021/12/06 06:33:34;;;;;;;1.90;1.40;;;;;;;;;;5033436;28;20029;-62
2021/12/06 06:36:01;;;;;;;2.90;1.40;;;;;;;;;;5033546;28;20025;-62
2021/12/06 06:38:28;;;;;;;3.30;1.27;;;;;;;;;;5031971;28;20476;-61
2021/12/06 06:40:55;;;;;;;2.28;1.38;;;;;;;;;;5031990;28;20420;-63
2021/12/06 06:43:22;;;;;;;2.78;1.10;;;;;;;;;;5033197;28;20127;-62
2021/12/06 06:45:49;;;;;;;2.13;1.20;;;;;;;;;;5033013;28;20028;-63
2021/12/06 06:48:16;;;;;;;2.05;1.30;;;;;;;;;;5033003;28;20021;-61
2021/12/06 06:50:43;;;;;;;2.30;1.30;;;;;;;;;;5032487;28;20032;-61
2021/12/06 06:53:10;;;;;;;2.53;1.35;;;;;;;;;;5032448;28;20033;-62
2021/12/06 06:55:37;;;;;;;2.53;1.30;;;;;;;;;;5032859;28;20512;-62
2021/12/06 06:58:05;;;;;;;2.55;1.30;;;;;;;;;;5032718;28;20091;-62
2021/12/06 07:00:34;;;;;;;3.22;1.30;;;;;;;;;;5032423;28;20026;-63
2021/12/06 07:03:01;;;;;;;1.40;0.93;;;;;;;;;;5032347;28;20040;-62
2021/12/06 07:05:28;;;;;;;2.45;1.52;;;;;;;;;;5032302;28;20029;-62
2021/12/06 07:07:56;;;;;;;2.35;1.10;;;;;;;;;;5032512;28;20388;-62
2021/12/06 07:10:24;;;;;;;1.65;1.10;;;;;;;;;;5031830;28;20737;-62
2021/12/06 07:12:52;;;;;;;2.95;1.13;;;;;;;;;;5032552;28;20034;-61
2021/12/06 07:15:23;;;;;;;1.77;1.00;;;;;;;;;;5032398;28;20491;-63
2021/12/06 07:17:51;;;;;;;3.05;1.27;;;;;;;;;;5032476;28;20350;-61
2021/12/06 07:20:18;;;;;;;4.25;1.00;;;;;;;;;;5032487;28;20025;-63
2021/12/06 07:22:47;;;;;;;1.55;1.10;;;;;;;;;;5031977;28;20037;-63
2021/12/06 07:25:16;;;;;;;2.08;1.00;;;;;;;;;;5031894;28;20136;-63
2021/12/06 07:27:43;;;;;;;1.83;1.40;;;;;;;;;;5032187;28;20522;-62
2021/12/06 07:30:11;;;;;;;2.53;1.20;;;;;;;;;;5031006;28;20026;-62
2021/12/06 07:32:38;;;;;;;2.50;1.10;;;;;;;;;;5031641;28;20032;-62
2021/12/06 07:35:06;;;;;;;1.42;1.10;;;;;;;;;;5032135;28;20021;-63
2021/12/06 07:37:33;;;;;;;2.20;1.10;;;;;;;;;;5031699;28;20028;-62
2021/12/06 07:40:00;;;;;;;2.97;1.30;;;;;;;;;;5031415;28;20496;-62
2021/12/06 07:42:27;;;;;;;2.72;1.10;;;;;;;;;;5031721;28;20091;-62
2021/12/06 07:44:54;;;;;;;2.00;1.30;;;;;;;;;;5032231;28;20152;-62
2021/12/06 07:47:22;;;;;;;2.08;1.15;;;;;;;;;;5032019;28;20029;-62
2021/12/06 07:49:49;;;;;;;3.13;1.13;;;;;;;;;;5031652;28;20035;-63
2021/12/06 07:52:16;;;;;;;2.08;1.20;;;;;;;;;;5031543;28;20017;-62
2021/12/06 07:54:43;;;;;;;1.77;1.00;;;;;;;;;;5031855;28;20017;-63
2021/12/06 07:57:10;;;;;;;1.63;1.08;;;;;;;;;;5031860;28;20045;-63
2021/12/06 07:59:39;;;;;;;2.08;1.15;;;;;;;;;;5031704;28;20021;-61
2021/12/06 08:02:08;;;;;;;2.05;1.17;;;;;;;;;;5028944;28;20079;-62
2021/12/06 08:04:37;;;;;;;1.67;1.10;;;;;;;;;;5031313;28;20029;-61
2021/12/06 08:07:04;;;;;;;2.72;1.10;;;;;;;;;;5031264;28;20025;-63
2021/12/06 08:09:31;;;;;;;1.63;0.90;;;;;;;;;;5031696;28;20021;-62
2021/12/06 08:11:59;;;;;;;2.38;1.10;;;;;;;;;;5031027;28;20025;-62
2021/12/06 08:14:26;;;;;;;4.55;1.38;;;;;;;;;;5031315;28;20068;-62
2021/12/06 08:16:53;;;;;;;1.80;0.90;;;;;;;;;;5029988;28;20022;-63
2021/12/06 08:19:20;;;;;;;2.20;1.08;;;;;;;;;;5030962;28;20029;-63
2021/12/06 08:21:47;;;;;;;2.15;0.98;;;;;;;;;;5030891;28;20040;-61
2021/12/06 08:24:14;;;;;;;3.08;1.00;;;;;;;;;;5031047;28;20427;-61
2021/12/06 08:26:42;;;;;;;1.25;0.85;;;;;;;;;;5031067;28;20038;-62
2021/12/06 08:29:11;;;;;;;2.00;1.00;;;;;;;;;;5031182;28;20025;-63
2021/12/06 08:31:41;;;;;;;2.28;1.10;;;;;;;;;;5030397;28;20029;-63
2021/12/06 08:34:08;;;;;;;1.95;1.05;;;;;;;;;;5030800;28;20030;-63
2021/12/06 08:36:35;;;;;;;1.45;1.02;;;;;;;;;;5031060;28;20021;-62
2021/12/06 08:39:02;;;;;;;1.90;0.95;;;;;;;;;;5029815;28;20465;-63
2021/12/06 08:41:30;;;;;;;3.15;1.00;;;;;;;;;;5030361;28;20033;-61
2021/12/06 08:44:01;;;;;;;2.20;1.00;;;;;;;;;;5030682;28;20037;-61
2021/12/06 08:46:39;;;;;;;1.70;1.05;;;;;;;;;;5031307;28;20393;-62
2021/12/06 08:49:09;;;;;;;2.75;1.10;;;;;;;;;;5030117;28;20044;-62
2021/12/06 08:51:38;;;;;;;2.50;1.10;;;;;;;;;;5030802;28;20044;-61
2021/12/06 08:54:06;;;;;;;2.15;0.95;;;;;;;;;;5029924;28;20030;-62
2021/12/06 08:56:33;;;;;;;2.40;0.93;;;;;;;;;;5031097;28;20030;-63
2021/12/06 08:59:00;;;;;;;1.30;0.90;;;;;;;;;;5030855;28;20049;-63
2021/12/06 09:01:27;;;;;;;1.63;1.08;;;;;;;;;;5029645;28;20589;-62
2021/12/06 09:03:54;;;;;;;1.13;0.70;;;;;;;;;;5030962;28;20121;-62
2021/12/06 09:06:22;;;;;;;1.98;1.00;;;;;;;;;;5029643;28;20021;-62
2021/12/06 09:08:49;;;;;;;2.13;1.10;;;;;;;;;;5030704;28;20025;-63
2021/12/06 09:11:16;;;;;;;1.65;0.80;;;;;;;;;;5030338;28;20029;-61
2021/12/06 09:13:43;;;;;;;1.10;0.98;;;;;;;;;;5030373;28;20093;-62
2021/12/06 09:16:11;;;;;;;1.92;1.02;;;;;;;;;;5030443;28;20022;-61
2021/12/06 09:18:40;;;;;;;1.15;0.80;;;;;;;;;;5029912;28;20477;-63
2021/12/06 09:21:10;;;;;;;2.67;1.00;;;;;;;;;;5028957;28;20040;-62
2021/12/06 09:23:37;;;;;;;6.53;1.10;;;;;;;;;;5030492;28;20389;-63
2021/12/06 09:26:05;;;;;;;1.83;0.90;;;;;;;;;;5030471;28;20046;-63
2021/12/06 09:28:32;;;;;;;1.77;1.00;;;;;;;;;;5030647;28;20362;-62
2021/12/06 09:31:01;;;;;;;1.58;1.00;;;;;;;;;;5029865;28;20018;-62
2021/12/06 09:33:30;;;;;;;1.55;0.90;;;;;;;;;;5030397;28;20441;-63
2021/12/06 09:35:59;;;;;;;1.35;0.90;;;;;;;;;;5030666;28;20507;-61
2021/12/06 09:38:32;;;;;;;3.60;1.08;;;;;;;;;;5030663;28;20045;-61
2021/12/06 09:41:00;;;;;;;4.72;1.60;;;;;;;;;;5030043;28;20026;-63
2021/12/06 09:43:27;;;;;;;3.72;1.48;;;;;;;;;;5029723;28;20049;-63
2021/12/06 09:45:54;;;;;;;5.38;1.42;;;;;;;;;;5030504;28;20037;-62
2021/12/06 09:48:22;;;;;;;3.70;1.50;;;;;;;;;;5029983;28;20059;-60
2021/12/06 09:50:52;;;;;;;3.13;1.40;;;;;;;;;;5028695;28;20038;-60
2021/12/06 09:53:21;;;;;;;3.33;1.02;;;;;;;;;;5028923;28;20022;-60
2021/12/06 09:55:49;;;;;;;3.63;1.20;;;;;;;;;;5029248;28;20108;-61
2021/12/06 09:58:16;;;;;;;2.63;1.10;;;;;;;;;;5029175;28;20029;-63
2021/12/06 10:00:45;;;;;;;3.72;1.00;;;;;;;;;;5029685;28;20030;-61
2021/12/06 10:03:15;;;;;;;2.35;1.02;;;;;;;;;;5031453;28;20365;-62
2021/12/06 10:05:43;;;;;;;3.88;1.27;;;;;;;;;;5032236;28;20064;-62
2021/12/06 10:08:10;;;;;;;4.18;0.88;;;;;;;;;;5032041;28;20030;-61
2021/12/06 10:10:37;;;;;;;2.33;1.20;;;;;;;;;;5033392;28;20025;-63
2021/12/06 10:13:04;;;;;;;5.35;1.17;;;;;;;;;;5032731;28;20032;-61
2021/12/06 10:15:31;;;;;;;2.90;1.10;;;;;;;;;;5033431;28;20026;-62
2021/12/06 10:17:59;;;;;;;4.20;0.85;;;;;;;;;;5033655;28;20078;-62
2021/12/06 10:20:27;;;;;;;2.03;0.90;;;;;;;;;;5033288;28;20034;-61
2021/12/06 10:22:54;;;;;;;1.98;1.13;;;;;;;;;;5033719;28;20036;-62
2021/12/06 10:25:22;;;;;;;3.03;1.00;;;;;;;;;;5033241;28;20048;-62
2021/12/06 10:27:57;;;;;;;2.83;0.95;;;;;;;;;;5033377;28;20109;-62
2021/12/06 10:30:25;;;;;;;2.03;1.02;;;;;;;;;;5033199;28;20032;-62
2021/12/06 10:33:00;;;;;;;1.67;0.80;;;;;;;;;;5033229;28;20029;-61
2021/12/06 10:35:27;;;;;;;2.30;1.00;;;;;;;;;;5033543;28;20029;-62
2021/12/06 10:37:57;;;;;;;1.55;0.70;;;;;;;;;;5033009;28;20029;-62
2021/12/06 10:40:27;;;;;;;3.55;1.17;;;;;;;;;;5032888;28;20099;-62
2021/12/06 10:42:55;;;;;;;2.05;0.90;;;;;;;;;;5032899;28;20496;-63
2021/12/06 10:45:22;;;;;;;2.05;1.00;;;;;;;;;;5033170;28;20493;-62
2021/12/06 10:48:07;;;;;;;2.55;1.08;;;;;;;;;;5032948;28;20052;-63
2021/12/06 10:50:34;;;;;;;3.33;1.15;;;;;;;;;;5032711;28;20088;-62
2021/12/06 10:53:03;;;;;;;3.08;0.80;;;;;;;;;;5033046;28;20405;-62
2021/12/06 10:55:32;;;;;;;1.45;0.80;;;;;;;;;;5032941;28;20033;-62
2021/12/06 10:58:01;;;;;;;2.25;1.15;;;;;;;;;;5032772;28;20032;-62
2021/12/06 11:00:32;;;;;;;4.57;1.00;;;;;;;;;;5032719;28;20029;-61
2021/12/06 11:03:01;;;;;;;1.70;1.00;;;;;;;;;;5032550;28;20063;-63
2021/12/06 11:05:29;;;;;;;1.98;0.95;;;;;;;;;;5032599;28;20081;-61
2021/12/06 11:08:13;;;;;;;1.13;0.73;;;;;;;;;;5032520;28;20417;-62
2021/12/06 11:10:45;;;;;;;1.63;0.98;;;;;;;;;;5032487;28;20508;-62
2021/12/06 11:13:11;;;;;;;;;;;;;;;;;;5031819;28;20467;-63
2021/12/06 11:15:51;;;;;;;1.65;0.80;;;;;;;;;;5032073;28;19905;-62
2021/12/06 11:18:29;;;;;;;3.80;0.95;;;;;;;;;;5032348;28;20033;-61
2021/12/06 11:20:57;;;;;;;2.75;0.85;;;;;;;;;;5032207;28;20025;-62
2021/12/06 11:23:24;;;;;;;2.72;0.70;;;;;;;;;;5031450;28;20443;-62
2021/12/06 11:25:55;;;;;;;3.10;0.93;;;;;;;;;;5031990;28;20053;-62
2021/12/06 11:28:26;;;;;;;2.15;0.95;;;;;;;;;;5031918;28;20030;-62
2021/12/06 11:31:05;;;;;;;5.72;1.30;;;;;;;;;;5031972;28;20025;-63
2021/12/06 11:33:33;;;;;;;5.70;0.77;;;;;;;;;;5022435;28;20727;-65
2021/12/06 11:36:01;;;;;;;1.90;0.50;;;;;;;;;;5031285;28;20036;-65
2021/12/06 11:38:30;;;;;;;4.65;0.60;;;;;;;;;;5030115;28;20686;-61
2021/12/06 11:40:58;;;;;;;1.38;0.60;;;;;;;;;;5031010;28;20124;-63
2021/12/06 11:43:26;;;;;;;3.83;0.50;;;;;;;;;;5031160;28;20439;-60
2021/12/06 11:45:58;;;;;;;2.63;0.60;;;;;;;;;;5030259;28;20407;-69
2021/12/06 11:48:39;;;;;;;1.00;0.50;;;;;;;;;;5043928;28;20053;-64
2021/12/06 11:51:12;;;;;;;1.17;0.40;;;;;;;;;;5051218;28;20361;-60
2021/12/06 11:53:44;;;;;;;0.98;0.30;;;;;;;;;;5049869;28;20056;-64
2021/12/06 11:56:27;;;;;;;1.13;0.30;;;;;;;;;;5050998;28;20035;-68
2021/12/06 11:58:59;;;;;;;1.63;0.40;;;;;;;;;;5046742;28;20075;-64
2021/12/06 12:01:28;;;;;;;1.95;0.30;;;;;;;;;;5029336;28;20463;-63
2021/12/06 12:03:57;;;;;;;2.60;0.57;;;;;;;;;;5028784;28;20033;-64
2021/12/06 12:06:29;;;;;;;2.72;0.70;;;;;;;;;;5026557;28;20116;-63
2021/12/06 12:09:02;;;;;;;1.00;0.30;;;;;;;;;;5031033;28;20396;-64
2021/12/06 12:11:29;;;;;;;4.65;0.57;;;;;;;;;;5029808;28;20108;-60
2021/12/06 12:13:58;;;;;;;2.03;0.40;;;;;;;;;;5029490;28;20427;-62
2021/12/06 12:16:25;;;;;;;1.33;0.30;;;;;;;;;;5029812;28;20120;-59
2021/12/06 12:18:52;;;;;;;3.63;0.50;;;;;;;;;;5029199;28;20053;-60
2021/12/06 12:21:19;;;;;;;1.80;0.30;;;;;;;;;;5030257;28;20112;-62
2021/12/06 12:23:46;;;;;;;2.35;1.13;;;;;;;;;;5029368;28;20034;-65
2021/12/06 12:26:15;;;;;;;1.02;0.50;;;;;;;;;;5021883;28;20057;-60
2021/12/06 12:31:41;;;;;;;3.30;0.50;;;;;;;;;;5001771;28;20615;-62
2021/12/06 12:34:08;;;;;;;3.70;0.50;;;;;;;;;;5010327;28;20022;-59
2021/12/06 12:36:35;;;;;;;1.75;0.45;;;;;;;;;;5012610;28;20029;-60
2021/12/06 12:39:02;;;;;;;2.30;0.50;;;;;;;;;;5012446;28;20022;-64
2021/12/06 12:41:33;;;;;;;1.13;0.50;;;;;;;;;;5009452;28;20596;-66
2021/12/06 12:44:07;;;;;;;11.52;0.60;;;;;;;;;;5010081;28;20437;-61
2021/12/06 12:46:37;;;;;;;11.80;0.50;;;;;;;;;;5030994;28;20148;-61
2021/12/06 12:49:06;;;;;;;4.78;0.50;;;;;;;;;;5007646;28;20659;-61
2021/12/06 12:51:38;;;;;;;5.40;0.40;;;;;;;;;;5016116;28;20029;-61
2021/12/06 12:54:09;;;;;;;4.03;0.50;;;;;;;;;;5018708;28;20022;-65
2021/12/06 12:56:41;;;;;;;0.68;0.35;;;;;;;;;;5019217;28;20447;-61
2021/12/06 12:59:21;;;;;;;3.63;0.50;;;;;;;;;;5018019;28;20017;-61
2021/12/06 13:02:06;;;;;;;2.53;0.50;;;;;;;;;;5010515;28;20034;-62
2021/12/06 13:05:00;;;;;;;1.85;0.50;;;;;;;;;;5011279;28;20084;-62
2021/12/06 13:07:28;;;;;;;6.15;0.60;;;;;;;;;;5002369;28;20045;-62
2021/12/06 13:09:56;;;;;;;0.90;0.32;;;;;;;;;;5015137;28;20029;-62
2021/12/06 13:12:24;;;;;;;2.72;0.20;;;;;;;;;;5017711;28;20025;-62
2021/12/06 13:14:58;;;;;;;0.82;0.30;;;;;;;;;;5013093;28;20496;-62
2021/12/06 13:17:36;;;;;;;3.63;0.60;;;;;;;;;;5010323;28;20037;-63
2021/12/06 13:20:11;;;;;;;1.10;0.43;;;;;;;;;;5025737;28;20026;-60
2021/12/06 13:22:47;;;;;;;2.03;0.30;;;;;;;;;;5017485;28;20025;-62
2021/12/06 13:25:16;;;;;;;0.80;0.50;;;;;;;;;;5015675;28;20049;-70
2021/12/06 13:27:47;;;;;;;1.73;0.50;;;;;;;;;;5017748;28;20026;-64
2021/12/06 13:30:21;;;;;;;1.27;0.50;;;;;;;;;;5017446;28;20048;-63
2021/12/06 13:32:56;;;;;;;4.15;0.93;;;;;;;;;;5011102;28;20089;-60
2021/12/06 13:35:32;;;;;;;2.90;0.47;;;;;;;;;;5019886;28;20037;-66
2021/12/06 13:38:17;;;;;;;2.15;0.50;;;;;;;;;;5017019;28;20543;-60
2021/12/06 13:40:48;;;;;;;4.78;0.50;;;;;;;;;;5020890;28;20030;-62
2021/12/06 13:43:22;;;;;;;4.82;0.77;;;;;;;;;;5011077;28;20540;-61
2021/12/06 13:45:50;;;;;;;3.08;0.40;;;;;;;;;;5014050;28;20030;-61
2021/12/06 13:48:22;;;;;;;1.80;0.57;;;;;;;;;;5011892;28;20026;-65
2021/12/06 13:50:51;;;;;;;1.75;0.43;;;;;;;;;;5010763;28;20069;-62
2021/12/06 13:53:22;;;;;;;7.05;0.68;;;;;;;;;;5019994;28;20100;-64
2021/12/06 13:55:51;;;;;;;3.95;0.60;;;;;;;;;;5013293;28;20026;-64
2021/12/06 13:58:19;;;;;;;2.30;0.73;;;;;;;;;;5010403;28;20489;-61
2021/12/06 14:00:46;;;;;;;3.85;0.68;;;;;;;;;;5011720;28;20084;-63
2021/12/06 14:03:14;;;;;;;5.50;0.45;;;;;;;;;;5009552;28;20485;-63
2021/12/06 14:05:42;;;;;;;1.65;0.60;;;;;;;;;;5009831;28;20026;-60
2021/12/06 14:08:11;;;;;;;6.82;0.75;;;;;;;;;;5014050;28;20033;-61
2021/12/06 14:10:38;;;;;;;5.07;0.55;;;;;;;;;;5035954;28;20030;-65
2021/12/06 14:13:09;;;;;;;3.08;0.50;;;;;;;;;;5021597;28;20029;-59
2021/12/06 14:15:49;;;;;;;1.30;0.40;;;;;;;;;;5023515;28;20979;-60
2021/12/06 14:18:18;;;;;;;5.85;0.70;;;;;;;;;;5017260;28;20029;-60
2021/12/06 14:20:49;;;;;;;6.25;0.73;;;;;;;;;;5011359;28;20033;-61
2021/12/06 14:23:17;;;;;;;4.80;0.93;;;;;;;;;;5020221;28;20029;-63
2021/12/06 14:25:51;;;;;;;5.03;0.55;;;;;;;;;;4918989;28;2709155;-61
2021/12/06 14:28:19;;;;;;;6.05;0.60;;;;;;;;;;5023561;28;20030;-61
2021/12/06 14:30:47;;;;;;;7.03;0.50;;;;;;;;;;5021202;28;20385;-61
2021/12/06 14:33:14;;;;;;;5.28;0.70;;;;;;;;;;5025148;28;20040;-61
2021/12/06 14:35:44;;;;;;;15.07;1.35;;;;;;;;;;5012137;28;20022;-61
2021/12/06 14:38:11;;;;;;;5.32;1.08;;;;;;;;;;5013402;28;20045;-61
2021/12/06 14:40:38;;;;;;;7.80;1.58;;;;;;;;;;5030555;28;20021;-62
2021/12/06 14:43:12;;;;;;;9.68;1.02;;;;;;;;;;5031091;28;20025;-62
2021/12/06 14:45:40;;;;;;;11.82;1.13;;;;;;;;;;5030766;28;20781;-61
2021/12/06 14:48:10;;;;;;;15.40;1.17;;;;;;;;;;5031610;28;20029;-61
2021/12/06 14:50:49;;;;;;;11.80;1.38;;;;;;;;;;5031154;28;20056;-61
2021/12/06 14:53:20;;;;;;;8.32;1.10;;;;;;;;;;5031732;28;20030;-61
2021/12/06 14:56:10;;;;;;;4.40;0.80;;;;;;;;;;5030299;28;20045;-62
2021/12/06 14:58:39;;;;;;;16.08;1.45;;;;;;;;;;5029855;28;20045;-61
2021/12/06 15:01:09;;;;;;;11.90;1.40;;;;;;;;;;5031293;28;20026;-61
2021/12/06 15:03:40;;;;;;;9.88;1.05;;;;;;;;;;5030801;28;20033;-61
2021/12/06 15:06:08;;;;;;;8.20;1.20;;;;;;;;;;5030730;28;20425;-61
2021/12/06 15:08:37;;;;;;;11.60;1.45;;;;;;;;;;5030230;28;20030;-61
2021/12/06 15:11:14;;;;;;;9.27;0.80;;;;;;;;;;5029847;28;20044;-62
2021/12/06 15:13:42;;;;;;;18.65;2.08;;;;;;;;;;5025711;28;20029;-61
2021/12/06 15:16:11;;;;;;;12.52;1.27;;;;;;;;;;5013319;28;20105;-62